sensor_id;sensor_type;location;lat;lon;timestamp;P1;durP1;ratioP1;P2;durP2;ratioP2
39994;SDS011;25686;51.908;10.418;2023-12-28T00:00:52;2.05;;;1.30;;
39994;SDS011;25686;51.908;10.418;2023-12-28T00:02:53;3.53;;;1.60;;
39994;SDS011;25686;51.908;10.418;2023-12-28T00:04:54;4.05;;;1.25;;
39994;SDS011;25686;51.908;10.418;2023-12-28T00:06:55;1.80;;;1.20;;
39994;SDS011;25686;51.908;10.418;2023-12-28T00:08:56;1.70;;;1.15;;
39994;SDS011;25686;51.908;10.418;2023-12-28T00:10:56;2.97;;;1.58;;
39994;SDS011;25686;51.908;10.418;2023-12-28T00:12:57;2.08;;;1.35;;
39994;SDS011;25686;51.908;10.418;2023-12-28T00:14:58;2.85;;;1.58;;
39994;SDS011;25686;51.908;10.418;2023-12-28T00:16:59;3.30;;;1.52;;
39994;SDS011;25686;51.908;10.418;2023-12-28T00:19:00;2.95;;;1.55;;
39994;SDS011;25686;51.908;10.418;2023-12-28T00:21:02;3.13;;;1.48;;
39994;SDS011;25686;51.908;10.418;2023-12-28T00:23:03;2.17;;;1.30;;
39994;SDS011;25686;51.908;10.418;2023-12-28T00:25:05;2.60;;;1.40;;
39994;SDS011;25686;51.908;10.418;2023-12-28T00:27:06;3.42;;;1.35;;
39994;SDS011;25686;51.908;10.418;2023-12-28T00:29:07;3.85;;;1.60;;
39994;SDS011;25686;51.908;10.418;2023-12-28T00:31:09;1.88;;;1.30;;
39994;SDS011;25686;51.908;10.418;2023-12-28T00:33:10;1.90;;;1.30;;
39994;SDS011;25686;51.908;10.418;2023-12-28T00:35:11;2.90;;;1.50;;
39994;SDS011;25686;51.908;10.418;2023-12-28T00:37:12;3.80;;;1.45;;
39994;SDS011;25686;51.908;10.418;2023-12-28T00:39:13;2.78;;;1.40;;
39994;SDS011;25686;51.908;10.418;2023-12-28T00:41:15;2.90;;;1.50;;
39994;SDS011;25686;51.908;10.418;2023-12-28T00:43:16;2.90;;;1.45;;
39994;SDS011;25686;51.908;10.418;2023-12-28T00:45:17;3.40;;;1.55;;
39994;SDS011;25686;51.908;10.418;2023-12-28T00:47:18;2.45;;;1.30;;
39994;SDS011;25686;51.908;10.418;2023-12-28T00:49:18;3.33;;;1.50;;
39994;SDS011;25686;51.908;10.418;2023-12-28T00:51:20;4.72;;;1.50;;
39994;SDS011;25686;51.908;10.418;2023-12-28T00:53:21;2.10;;;1.33;;
39994;SDS011;25686;51.908;10.418;2023-12-28T00:55:22;4.18;;;1.50;;
39994;SDS011;25686;51.908;10.418;2023-12-28T00:57:23;2.22;;;1.48;;
39994;SDS011;25686;51.908;10.418;2023-12-28T00:59:24;2.00;;;1.38;;
39994;SDS011;25686;51.908;10.418;2023-12-28T01:01:25;1.85;;;1.30;;
39994;SDS011;25686;51.908;10.418;2023-12-28T01:03:26;2.63;;;1.33;;
39994;SDS011;25686;51.908;10.418;2023-12-28T01:05:27;2.33;;;1.20;;
39994;SDS011;25686;51.908;10.418;2023-12-28T01:07:28;2.97;;;1.40;;
39994;SDS011;25686;51.908;10.418;2023-12-28T01:09:29;1.65;;;1.02;;
39994;SDS011;25686;51.908;10.418;2023-12-28T01:11:32;3.13;;;1.60;;
39994;SDS011;25686;51.908;10.418;2023-12-28T01:13:33;3.40;;;1.50;;
39994;SDS011;25686;51.908;10.418;2023-12-28T01:15:35;4.10;;;1.67;;
39994;SDS011;25686;51.908;10.418;2023-12-28T01:17:37;3.22;;;1.55;;
39994;SDS011;25686;51.908;10.418;2023-12-28T01:19:38;3.05;;;1.52;;
39994;SDS011;25686;51.908;10.418;2023-12-28T01:21:39;5.13;;;1.50;;
39994;SDS011;25686;51.908;10.418;2023-12-28T01:23:40;1.80;;;1.33;;
39994;SDS011;25686;51.908;10.418;2023-12-28T01:25:41;4.00;;;1.60;;
39994;SDS011;25686;51.908;10.418;2023-12-28T01:27:42;3.35;;;1.70;;
39994;SDS011;25686;51.908;10.418;2023-12-28T01:29:43;3.88;;;1.55;;
39994;SDS011;25686;51.908;10.418;2023-12-28T01:31:44;3.92;;;1.63;;
39994;SDS011;25686;51.908;10.418;2023-12-28T01:33:45;3.17;;;1.70;;
39994;SDS011;25686;51.908;10.418;2023-12-28T01:35:46;3.17;;;1.60;;
39994;SDS011;25686;51.908;10.418;2023-12-28T01:37:47;2.28;;;1.50;;
39994;SDS011;25686;51.908;10.418;2023-12-28T01:39:48;6.28;;;1.98;;
39994;SDS011;25686;51.908;10.418;2023-12-28T01:41:49;5.57;;;1.73;;
39994;SDS011;25686;51.908;10.418;2023-12-28T01:43:50;3.92;;;1.58;;
39994;SDS011;25686;51.908;10.418;2023-12-28T01:45:51;3.15;;;1.50;;
39994;SDS011;25686;51.908;10.418;2023-12-28T01:47:52;4.35;;;1.70;;
39994;SDS011;25686;51.908;10.418;2023-12-28T01:49:54;2.72;;;1.80;;
39994;SDS011;25686;51.908;10.418;2023-12-28T01:51:55;4.88;;;2.00;;
39994;SDS011;25686;51.908;10.418;2023-12-28T01:53:56;4.45;;;1.95;;
39994;SDS011;25686;51.908;10.418;2023-12-28T01:55:58;3.55;;;1.88;;
39994;SDS011;25686;51.908;10.418;2023-12-28T01:57:59;3.03;;;1.88;;
39994;SDS011;25686;51.908;10.418;2023-12-28T02:00:00;4.28;;;2.00;;
39994;SDS011;25686;51.908;10.418;2023-12-28T02:02:03;4.00;;;1.90;;
39994;SDS011;25686;51.908;10.418;2023-12-28T02:04:04;3.63;;;1.90;;
39994;SDS011;25686;51.908;10.418;2023-12-28T02:06:06;3.85;;;1.83;;
39994;SDS011;25686;51.908;10.418;2023-12-28T02:08:07;4.88;;;2.03;;
39994;SDS011;25686;51.908;10.418;2023-12-28T02:10:08;3.88;;;1.98;;
39994;SDS011;25686;51.908;10.418;2023-12-28T02:12:09;3.88;;;1.85;;
39994;SDS011;25686;51.908;10.418;2023-12-28T02:14:10;5.40;;;2.20;;
39994;SDS011;25686;51.908;10.418;2023-12-28T02:16:21;5.38;;;2.30;;
39994;SDS011;25686;51.908;10.418;2023-12-28T02:18:27;4.35;;;1.95;;
39994;SDS011;25686;51.908;10.418;2023-12-28T02:20:31;5.97;;;1.98;;
39994;SDS011;25686;51.908;10.418;2023-12-28T02:22:32;4.25;;;2.20;;
39994;SDS011;25686;51.908;10.418;2023-12-28T02:27:13;4.07;;;2.10;;
39994;SDS011;25686;51.908;10.418;2023-12-28T02:29:14;5.93;;;2.60;;
39994;SDS011;25686;51.908;10.418;2023-12-28T02:31:21;10.27;;;2.30;;
39994;SDS011;25686;51.908;10.418;2023-12-28T02:33:31;4.53;;;2.30;;
39994;SDS011;25686;51.908;10.418;2023-12-28T02:37:55;4.78;;;2.40;;
39994;SDS011;25686;51.908;10.418;2023-12-28T02:39:56;5.32;;;2.65;;
39994;SDS011;25686;51.908;10.418;2023-12-28T02:41:57;5.32;;;2.83;;
39994;SDS011;25686;51.908;10.418;2023-12-28T02:43:58;4.63;;;2.45;;
39994;SDS011;25686;51.908;10.418;2023-12-28T02:45:59;5.70;;;2.60;;
39994;SDS011;25686;51.908;10.418;2023-12-28T02:48:01;3.30;;;2.40;;
39994;SDS011;25686;51.908;10.418;2023-12-28T02:50:02;4.70;;;2.42;;
39994;SDS011;25686;51.908;10.418;2023-12-28T02:52:03;7.45;;;2.75;;
39994;SDS011;25686;51.908;10.418;2023-12-28T02:54:04;3.53;;;2.50;;
39994;SDS011;25686;51.908;10.418;2023-12-28T02:56:05;7.05;;;2.60;;
39994;SDS011;25686;51.908;10.418;2023-12-28T02:58:06;4.85;;;2.60;;
39994;SDS011;25686;51.908;10.418;2023-12-28T03:00:07;4.63;;;2.80;;
39994;SDS011;25686;51.908;10.418;2023-12-28T03:02:08;4.38;;;2.80;;
39994;SDS011;25686;51.908;10.418;2023-12-28T03:04:09;6.35;;;2.95;;
39994;SDS011;25686;51.908;10.418;2023-12-28T03:06:10;5.03;;;2.80;;
39994;SDS011;25686;51.908;10.418;2023-12-28T03:08:11;6.40;;;2.70;;
39994;SDS011;25686;51.908;10.418;2023-12-28T03:10:12;3.75;;;2.33;;
39994;SDS011;25686;51.908;10.418;2023-12-28T03:12:13;4.88;;;2.35;;
39994;SDS011;25686;51.908;10.418;2023-12-28T03:14:16;6.07;;;3.20;;
39994;SDS011;25686;51.908;10.418;2023-12-28T03:16:17;4.47;;;2.70;;
39994;SDS011;25686;51.908;10.418;2023-12-28T03:18:18;6.80;;;2.83;;
39994;SDS011;25686;51.908;10.418;2023-12-28T03:20:19;5.25;;;2.72;;
39994;SDS011;25686;51.908;10.418;2023-12-28T03:22:20;5.80;;;2.50;;
39994;SDS011;25686;51.908;10.418;2023-12-28T03:24:22;6.80;;;2.92;;
39994;SDS011;25686;51.908;10.418;2023-12-28T03:26:22;4.25;;;2.58;;
39994;SDS011;25686;51.908;10.418;2023-12-28T03:28:23;3.50;;;2.20;;
39994;SDS011;25686;51.908;10.418;2023-12-28T03:30:24;3.78;;;2.63;;
39994;SDS011;25686;51.908;10.418;2023-12-28T03:32:25;3.90;;;2.55;;
39994;SDS011;25686;51.908;10.418;2023-12-28T03:34:27;5.10;;;2.90;;
39994;SDS011;25686;51.908;10.418;2023-12-28T03:36:29;5.35;;;2.50;;
39994;SDS011;25686;51.908;10.418;2023-12-28T03:38:30;4.22;;;2.90;;
39994;SDS011;25686;51.908;10.418;2023-12-28T03:40:31;3.92;;;2.50;;
39994;SDS011;25686;51.908;10.418;2023-12-28T03:42:32;4.05;;;2.30;;
39994;SDS011;25686;51.908;10.418;2023-12-28T03:44:33;2.83;;;2.35;;
39994;SDS011;25686;51.908;10.418;2023-12-28T03:46:34;3.15;;;2.25;;
39994;SDS011;25686;51.908;10.418;2023-12-28T03:48:35;5.05;;;2.47;;
39994;SDS011;25686;51.908;10.418;2023-12-28T03:50:36;5.28;;;2.53;;
39994;SDS011;25686;51.908;10.418;2023-12-28T03:52:37;4.35;;;2.45;;
39994;SDS011;25686;51.908;10.418;2023-12-28T03:54:39;4.28;;;2.40;;
39994;SDS011;25686;51.908;10.418;2023-12-28T03:56:40;5.85;;;2.70;;
39994;SDS011;25686;51.908;10.418;2023-12-28T03:58:41;4.28;;;2.40;;
39994;SDS011;25686;51.908;10.418;2023-12-28T04:00:42;4.32;;;2.30;;
39994;SDS011;25686;51.908;10.418;2023-12-28T04:02:43;5.78;;;2.58;;
39994;SDS011;25686;51.908;10.418;2023-12-28T04:04:44;4.28;;;2.38;;
39994;SDS011;25686;51.908;10.418;2023-12-28T04:06:45;6.30;;;2.70;;
39994;SDS011;25686;51.908;10.418;2023-12-28T04:08:46;7.88;;;2.60;;
39994;SDS011;25686;51.908;10.418;2023-12-28T04:10:46;4.50;;;2.55;;
39994;SDS011;25686;51.908;10.418;2023-12-28T04:12:47;5.22;;;2.30;;
39994;SDS011;25686;51.908;10.418;2023-12-28T04:14:48;3.60;;;2.45;;
39994;SDS011;25686;51.908;10.418;2023-12-28T04:16:49;3.78;;;2.33;;
39994;SDS011;25686;51.908;10.418;2023-12-28T04:18:50;5.35;;;2.65;;
39994;SDS011;25686;51.908;10.418;2023-12-28T04:20:51;3.60;;;2.47;;
39994;SDS011;25686;51.908;10.418;2023-12-28T04:22:52;3.30;;;2.00;;
39994;SDS011;25686;51.908;10.418;2023-12-28T04:24:53;2.90;;;2.08;;
39994;SDS011;25686;51.908;10.418;2023-12-28T04:26:54;4.80;;;2.20;;
39994;SDS011;25686;51.908;10.418;2023-12-28T04:28:55;4.15;;;2.25;;
39994;SDS011;25686;51.908;10.418;2023-12-28T04:30:56;3.92;;;2.38;;
39994;SDS011;25686;51.908;10.418;2023-12-28T04:32:57;4.20;;;2.58;;
39994;SDS011;25686;51.908;10.418;2023-12-28T04:34:58;4.00;;;2.60;;
39994;SDS011;25686;51.908;10.418;2023-12-28T04:36:59;6.10;;;2.35;;
39994;SDS011;25686;51.908;10.418;2023-12-28T04:39:00;5.25;;;2.50;;
39994;SDS011;25686;51.908;10.418;2023-12-28T04:41:01;3.60;;;2.30;;
39994;SDS011;25686;51.908;10.418;2023-12-28T04:43:02;5.22;;;2.30;;
39994;SDS011;25686;51.908;10.418;2023-12-28T04:45:03;2.85;;;2.28;;
39994;SDS011;25686;51.908;10.418;2023-12-28T04:47:05;2.90;;;2.30;;
39994;SDS011;25686;51.908;10.418;2023-12-28T04:49:06;7.20;;;2.15;;
39994;SDS011;25686;51.908;10.418;2023-12-28T04:51:07;6.10;;;2.55;;
39994;SDS011;25686;51.908;10.418;2023-12-28T04:53:08;4.18;;;2.40;;
39994;SDS011;25686;51.908;10.418;2023-12-28T04:55:09;5.25;;;2.20;;
39994;SDS011;25686;51.908;10.418;2023-12-28T04:57:10;4.25;;;2.33;;
39994;SDS011;25686;51.908;10.418;2023-12-28T04:59:11;3.75;;;2.50;;
39994;SDS011;25686;51.908;10.418;2023-12-28T05:01:12;4.30;;;2.28;;
39994;SDS011;25686;51.908;10.418;2023-12-28T05:03:12;4.28;;;2.50;;
39994;SDS011;25686;51.908;10.418;2023-12-28T05:05:13;2.80;;;2.20;;
39994;SDS011;25686;51.908;10.418;2023-12-28T05:07:14;3.47;;;2.22;;
39994;SDS011;25686;51.908;10.418;2023-12-28T05:09:15;4.85;;;2.40;;
39994;SDS011;25686;51.908;10.418;2023-12-28T05:11:16;4.70;;;2.38;;
39994;SDS011;25686;51.908;10.418;2023-12-28T05:13:17;3.85;;;2.47;;
39994;SDS011;25686;51.908;10.418;2023-12-28T05:15:18;3.78;;;2.60;;
39994;SDS011;25686;51.908;10.418;2023-12-28T05:17:19;3.17;;;2.42;;
39994;SDS011;25686;51.908;10.418;2023-12-28T05:19:20;5.57;;;2.97;;
39994;SDS011;25686;51.908;10.418;2023-12-28T05:21:21;3.70;;;2.67;;
39994;SDS011;25686;51.908;10.418;2023-12-28T05:23:22;4.32;;;2.70;;
39994;SDS011;25686;51.908;10.418;2023-12-28T05:25:23;4.40;;;2.60;;
39994;SDS011;25686;51.908;10.418;2023-12-28T05:27:24;5.28;;;2.88;;
39994;SDS011;25686;51.908;10.418;2023-12-28T05:29:25;6.55;;;2.78;;
39994;SDS011;25686;51.908;10.418;2023-12-28T05:31:26;5.75;;;3.00;;
39994;SDS011;25686;51.908;10.418;2023-12-28T05:33:27;4.00;;;2.60;;
39994;SDS011;25686;51.908;10.418;2023-12-28T05:35:28;5.22;;;2.63;;
39994;SDS011;25686;51.908;10.418;2023-12-28T05:37:29;6.28;;;3.05;;
39994;SDS011;25686;51.908;10.418;2023-12-28T05:39:30;5.70;;;2.80;;
39994;SDS011;25686;51.908;10.418;2023-12-28T05:41:31;3.72;;;2.40;;
39994;SDS011;25686;51.908;10.418;2023-12-28T05:43:32;3.80;;;2.50;;
39994;SDS011;25686;51.908;10.418;2023-12-28T05:45:33;3.50;;;2.60;;
39994;SDS011;25686;51.908;10.418;2023-12-28T05:47:34;3.33;;;2.22;;
39994;SDS011;25686;51.908;10.418;2023-12-28T05:49:35;3.70;;;2.50;;
39994;SDS011;25686;51.908;10.418;2023-12-28T05:51:38;3.80;;;2.42;;
39994;SDS011;25686;51.908;10.418;2023-12-28T05:53:40;5.43;;;3.08;;
39994;SDS011;25686;51.908;10.418;2023-12-28T05:55:41;6.30;;;3.00;;
39994;SDS011;25686;51.908;10.418;2023-12-28T05:57:42;4.30;;;2.40;;
39994;SDS011;25686;51.908;10.418;2023-12-28T05:59:43;3.88;;;2.55;;
39994;SDS011;25686;51.908;10.418;2023-12-28T06:01:44;3.55;;;2.35;;
39994;SDS011;25686;51.908;10.418;2023-12-28T06:03:45;3.28;;;2.47;;
39994;SDS011;25686;51.908;10.418;2023-12-28T06:05:49;5.63;;;2.78;;
39994;SDS011;25686;51.908;10.418;2023-12-28T06:07:50;3.20;;;2.53;;
39994;SDS011;25686;51.908;10.418;2023-12-28T06:09:51;3.40;;;2.55;;
39994;SDS011;25686;51.908;10.418;2023-12-28T06:11:52;4.05;;;2.60;;
39994;SDS011;25686;51.908;10.418;2023-12-28T06:13:53;9.80;;;2.30;;
39994;SDS011;25686;51.908;10.418;2023-12-28T06:15:54;3.38;;;2.30;;
39994;SDS011;25686;51.908;10.418;2023-12-28T06:17:55;4.60;;;2.60;;
39994;SDS011;25686;51.908;10.418;2023-12-28T06:19:56;6.60;;;2.67;;
39994;SDS011;25686;51.908;10.418;2023-12-28T06:21:56;4.50;;;2.50;;
39994;SDS011;25686;51.908;10.418;2023-12-28T06:23:58;3.30;;;2.67;;
39994;SDS011;25686;51.908;10.418;2023-12-28T06:26:03;4.70;;;2.47;;
39994;SDS011;25686;51.908;10.418;2023-12-28T06:28:05;3.13;;;2.50;;
39994;SDS011;25686;51.908;10.418;2023-12-28T06:30:06;4.60;;;2.45;;
39994;SDS011;25686;51.908;10.418;2023-12-28T06:32:07;2.63;;;2.25;;
39994;SDS011;25686;51.908;10.418;2023-12-28T06:34:09;3.90;;;2.55;;
39994;SDS011;25686;51.908;10.418;2023-12-28T06:36:10;4.72;;;2.65;;
39994;SDS011;25686;51.908;10.418;2023-12-28T06:38:11;4.38;;;2.60;;
39994;SDS011;25686;51.908;10.418;2023-12-28T06:40:12;5.05;;;2.85;;
39994;SDS011;25686;51.908;10.418;2023-12-28T06:42:14;3.38;;;2.35;;
39994;SDS011;25686;51.908;10.418;2023-12-28T06:44:15;2.53;;;2.20;;
39994;SDS011;25686;51.908;10.418;2023-12-28T06:46:16;2.80;;;2.00;;
39994;SDS011;25686;51.908;10.418;2023-12-28T06:48:17;3.28;;;2.42;;
39994;SDS011;25686;51.908;10.418;2023-12-28T06:50:18;6.10;;;2.50;;
39994;SDS011;25686;51.908;10.418;2023-12-28T06:52:19;3.25;;;2.20;;
39994;SDS011;25686;51.908;10.418;2023-12-28T06:54:20;3.10;;;2.55;;
39994;SDS011;25686;51.908;10.418;2023-12-28T06:56:21;3.85;;;2.13;;
39994;SDS011;25686;51.908;10.418;2023-12-28T06:58:22;5.85;;;2.60;;
39994;SDS011;25686;51.908;10.418;2023-12-28T07:00:23;3.60;;;2.30;;
39994;SDS011;25686;51.908;10.418;2023-12-28T07:02:24;3.90;;;2.45;;
39994;SDS011;25686;51.908;10.418;2023-12-28T07:04:25;4.93;;;2.53;;
39994;SDS011;25686;51.908;10.418;2023-12-28T07:06:29;4.35;;;2.50;;
39994;SDS011;25686;51.908;10.418;2023-12-28T07:08:30;4.47;;;2.35;;
39994;SDS011;25686;51.908;10.418;2023-12-28T07:10:31;3.97;;;2.60;;
39994;SDS011;25686;51.908;10.418;2023-12-28T07:12:32;5.47;;;2.53;;
39994;SDS011;25686;51.908;10.418;2023-12-28T07:14:33;4.65;;;2.13;;
39994;SDS011;25686;51.908;10.418;2023-12-28T07:16:36;5.10;;;2.55;;
39994;SDS011;25686;51.908;10.418;2023-12-28T07:18:37;3.45;;;2.17;;
39994;SDS011;25686;51.908;10.418;2023-12-28T07:20:38;4.13;;;2.53;;
39994;SDS011;25686;51.908;10.418;2023-12-28T07:22:39;3.80;;;2.30;;
39994;SDS011;25686;51.908;10.418;2023-12-28T07:24:40;4.32;;;2.55;;
39994;SDS011;25686;51.908;10.418;2023-12-28T07:26:41;4.43;;;2.88;;
39994;SDS011;25686;51.908;10.418;2023-12-28T07:28:42;3.25;;;2.40;;
39994;SDS011;25686;51.908;10.418;2023-12-28T07:30:44;5.55;;;2.53;;
39994;SDS011;25686;51.908;10.418;2023-12-28T07:32:45;5.68;;;2.53;;
39994;SDS011;25686;51.908;10.418;2023-12-28T07:34:46;4.47;;;2.70;;
39994;SDS011;25686;51.908;10.418;2023-12-28T07:36:47;3.97;;;2.55;;
39994;SDS011;25686;51.908;10.418;2023-12-28T07:38:48;4.28;;;2.97;;
39994;SDS011;25686;51.908;10.418;2023-12-28T07:40:49;8.15;;;2.78;;
39994;SDS011;25686;51.908;10.418;2023-12-28T07:42:50;4.85;;;2.90;;
39994;SDS011;25686;51.908;10.418;2023-12-28T07:44:51;5.18;;;2.50;;
39994;SDS011;25686;51.908;10.418;2023-12-28T07:46:52;4.65;;;2.70;;
39994;SDS011;25686;51.908;10.418;2023-12-28T07:48:53;3.90;;;2.70;;
39994;SDS011;25686;51.908;10.418;2023-12-28T07:50:54;4.72;;;2.53;;
39994;SDS011;25686;51.908;10.418;2023-12-28T07:52:55;4.45;;;2.47;;
39994;SDS011;25686;51.908;10.418;2023-12-28T07:54:56;7.65;;;2.92;;
39994;SDS011;25686;51.908;10.418;2023-12-28T07:56:59;4.32;;;2.38;;
39994;SDS011;25686;51.908;10.418;2023-12-28T07:59:00;6.60;;;2.97;;
39994;SDS011;25686;51.908;10.418;2023-12-28T08:01:00;5.50;;;2.90;;
39994;SDS011;25686;51.908;10.418;2023-12-28T08:03:01;4.32;;;2.72;;
39994;SDS011;25686;51.908;10.418;2023-12-28T08:05:03;6.60;;;3.05;;
39994;SDS011;25686;51.908;10.418;2023-12-28T08:07:04;4.40;;;2.40;;
39994;SDS011;25686;51.908;10.418;2023-12-28T08:09:07;4.55;;;2.50;;
39994;SDS011;25686;51.908;10.418;2023-12-28T08:11:08;6.38;;;2.55;;
39994;SDS011;25686;51.908;10.418;2023-12-28T08:13:09;5.65;;;2.25;;
39994;SDS011;25686;51.908;10.418;2023-12-28T08:15:10;6.18;;;2.70;;
39994;SDS011;25686;51.908;10.418;2023-12-28T08:17:11;5.88;;;2.60;;
39994;SDS011;25686;51.908;10.418;2023-12-28T08:19:12;8.05;;;2.67;;
39994;SDS011;25686;51.908;10.418;2023-12-28T08:21:13;5.97;;;2.60;;
39994;SDS011;25686;51.908;10.418;2023-12-28T08:23:14;3.78;;;2.55;;
39994;SDS011;25686;51.908;10.418;2023-12-28T08:25:15;6.00;;;2.72;;
39994;SDS011;25686;51.908;10.418;2023-12-28T08:27:16;4.75;;;2.40;;
39994;SDS011;25686;51.908;10.418;2023-12-28T08:29:17;4.35;;;2.60;;
39994;SDS011;25686;51.908;10.418;2023-12-28T08:31:18;5.50;;;2.70;;
39994;SDS011;25686;51.908;10.418;2023-12-28T08:33:19;4.70;;;2.88;;
39994;SDS011;25686;51.908;10.418;2023-12-28T08:35:20;3.33;;;2.28;;
39994;SDS011;25686;51.908;10.418;2023-12-28T08:37:21;5.43;;;2.40;;
39994;SDS011;25686;51.908;10.418;2023-12-28T08:39:22;5.60;;;2.78;;
39994;SDS011;25686;51.908;10.418;2023-12-28T08:41:23;3.78;;;2.80;;
39994;SDS011;25686;51.908;10.418;2023-12-28T08:43:24;3.78;;;2.67;;
39994;SDS011;25686;51.908;10.418;2023-12-28T08:45:25;4.80;;;2.72;;
39994;SDS011;25686;51.908;10.418;2023-12-28T08:47:26;3.97;;;2.55;;
39994;SDS011;25686;51.908;10.418;2023-12-28T08:49:27;5.03;;;2.92;;
39994;SDS011;25686;51.908;10.418;2023-12-28T08:51:29;4.07;;;2.78;;
39994;SDS011;25686;51.908;10.418;2023-12-28T08:53:30;4.90;;;2.80;;
39994;SDS011;25686;51.908;10.418;2023-12-28T08:55:31;4.22;;;2.53;;
39994;SDS011;25686;51.908;10.418;2023-12-28T08:57:33;5.20;;;2.78;;
39994;SDS011;25686;51.908;10.418;2023-12-28T08:59:37;4.78;;;2.63;;
39994;SDS011;25686;51.908;10.418;2023-12-28T09:01:38;4.82;;;2.60;;
39994;SDS011;25686;51.908;10.418;2023-12-28T09:03:39;5.20;;;2.75;;
39994;SDS011;25686;51.908;10.418;2023-12-28T09:05:40;4.55;;;2.80;;
39994;SDS011;25686;51.908;10.418;2023-12-28T09:07:41;4.00;;;2.38;;
39994;SDS011;25686;51.908;10.418;2023-12-28T09:09:43;4.50;;;2.90;;
39994;SDS011;25686;51.908;10.418;2023-12-28T09:11:44;3.97;;;2.70;;
39994;SDS011;25686;51.908;10.418;2023-12-28T09:13:45;3.75;;;2.30;;
39994;SDS011;25686;51.908;10.418;2023-12-28T09:15:46;4.32;;;2.10;;
39994;SDS011;25686;51.908;10.418;2023-12-28T09:17:47;3.25;;;2.38;;
39994;SDS011;25686;51.908;10.418;2023-12-28T09:19:48;3.33;;;2.20;;
39994;SDS011;25686;51.908;10.418;2023-12-28T09:21:49;4.90;;;2.38;;
39994;SDS011;25686;51.908;10.418;2023-12-28T09:23:50;4.13;;;2.33;;
39994;SDS011;25686;51.908;10.418;2023-12-28T09:25:51;3.35;;;2.33;;
39994;SDS011;25686;51.908;10.418;2023-12-28T09:27:52;3.63;;;2.10;;
39994;SDS011;25686;51.908;10.418;2023-12-28T09:29:53;3.35;;;2.20;;
39994;SDS011;25686;51.908;10.418;2023-12-28T09:31:54;3.78;;;2.47;;
39994;SDS011;25686;51.908;10.418;2023-12-28T09:33:55;4.10;;;2.13;;
39994;SDS011;25686;51.908;10.418;2023-12-28T09:35:56;3.65;;;2.30;;
39994;SDS011;25686;51.908;10.418;2023-12-28T09:37:57;3.50;;;2.03;;
39994;SDS011;25686;51.908;10.418;2023-12-28T09:39:58;2.67;;;2.10;;
39994;SDS011;25686;51.908;10.418;2023-12-28T09:41:59;2.72;;;1.98;;
39994;SDS011;25686;51.908;10.418;2023-12-28T09:44:34;3.53;;;2.25;;
39994;SDS011;25686;51.908;10.418;2023-12-28T09:46:28;4.10;;;2.05;;
39994;SDS011;25686;51.908;10.418;2023-12-28T09:48:29;2.85;;;2.20;;
39994;SDS011;25686;51.908;10.418;2023-12-28T09:50:30;4.28;;;2.28;;
39994;SDS011;25686;51.908;10.418;2023-12-28T09:52:32;5.95;;;2.25;;
39994;SDS011;25686;51.908;10.418;2023-12-28T09:54:34;3.35;;;2.15;;
39994;SDS011;25686;51.908;10.418;2023-12-28T09:56:35;4.70;;;2.03;;
39994;SDS011;25686;51.908;10.418;2023-12-28T09:58:37;3.45;;;2.10;;
39994;SDS011;25686;51.908;10.418;2023-12-28T10:00:38;6.95;;;2.55;;
39994;SDS011;25686;51.908;10.418;2023-12-28T10:02:43;3.72;;;1.92;;
39994;SDS011;25686;51.908;10.418;2023-12-28T10:04:44;4.07;;;2.00;;
39994;SDS011;25686;51.908;10.418;2023-12-28T10:06:45;5.20;;;2.50;;
39994;SDS011;25686;51.908;10.418;2023-12-28T10:08:46;5.45;;;2.10;;
39994;SDS011;25686;51.908;10.418;2023-12-28T10:10:48;6.25;;;2.30;;
39994;SDS011;25686;51.908;10.418;2023-12-28T10:12:54;4.85;;;2.35;;
39994;SDS011;25686;51.908;10.418;2023-12-28T10:14:56;3.97;;;2.17;;
39994;SDS011;25686;51.908;10.418;2023-12-28T10:16:57;3.85;;;2.10;;
39994;SDS011;25686;51.908;10.418;2023-12-28T10:18:59;4.13;;;2.28;;
39994;SDS011;25686;51.908;10.418;2023-12-28T10:21:00;4.53;;;2.10;;
39994;SDS011;25686;51.908;10.418;2023-12-28T10:23:01;5.65;;;2.40;;
39994;SDS011;25686;51.908;10.418;2023-12-28T10:25:05;7.38;;;2.53;;
39994;SDS011;25686;51.908;10.418;2023-12-28T10:27:06;5.80;;;2.42;;
39994;SDS011;25686;51.908;10.418;2023-12-28T10:29:07;4.05;;;2.42;;
39994;SDS011;25686;51.908;10.418;2023-12-28T10:31:08;3.67;;;1.73;;
39994;SDS011;25686;51.908;10.418;2023-12-28T10:33:09;2.72;;;2.00;;
39994;SDS011;25686;51.908;10.418;2023-12-28T10:35:10;3.15;;;1.65;;
39994;SDS011;25686;51.908;10.418;2023-12-28T10:37:11;4.43;;;2.45;;
39994;SDS011;25686;51.908;10.418;2023-12-28T10:39:12;7.97;;;2.40;;
39994;SDS011;25686;51.908;10.418;2023-12-28T10:41:14;6.80;;;2.70;;
39994;SDS011;25686;51.908;10.418;2023-12-28T10:43:16;6.63;;;2.42;;
39994;SDS011;25686;51.908;10.418;2023-12-28T10:45:18;5.47;;;2.25;;
39994;SDS011;25686;51.908;10.418;2023-12-28T10:47:23;5.53;;;2.42;;
39994;SDS011;25686;51.908;10.418;2023-12-28T10:49:25;4.13;;;2.30;;
39994;SDS011;25686;51.908;10.418;2023-12-28T10:51:26;7.22;;;2.45;;
39994;SDS011;25686;51.908;10.418;2023-12-28T10:57:49;4.05;;;2.22;;
39994;SDS011;25686;51.908;10.418;2023-12-28T11:00:09;8.18;;;2.03;;
39994;SDS011;25686;51.908;10.418;2023-12-28T11:02:11;5.05;;;2.20;;
39994;SDS011;25686;51.908;10.418;2023-12-28T11:06:36;2.88;;;1.90;;
39994;SDS011;25686;51.908;10.418;2023-12-28T11:08:38;8.10;;;1.92;;
39994;SDS011;25686;51.908;10.418;2023-12-28T11:10:39;4.63;;;2.22;;
39994;SDS011;25686;51.908;10.418;2023-12-28T11:12:40;7.88;;;2.17;;
39994;SDS011;25686;51.908;10.418;2023-12-28T11:14:42;9.10;;;2.30;;
39994;SDS011;25686;51.908;10.418;2023-12-28T11:16:43;5.40;;;2.15;;
39994;SDS011;25686;51.908;10.418;2023-12-28T11:18:44;3.92;;;2.38;;
39994;SDS011;25686;51.908;10.418;2023-12-28T11:20:45;4.68;;;2.25;;
39994;SDS011;25686;51.908;10.418;2023-12-28T11:22:47;5.68;;;1.75;;
39994;SDS011;25686;51.908;10.418;2023-12-28T11:24:48;8.30;;;2.20;;
39994;SDS011;25686;51.908;10.418;2023-12-28T11:26:52;5.15;;;2.55;;
39994;SDS011;25686;51.908;10.418;2023-12-28T11:29:03;4.85;;;2.30;;
39994;SDS011;25686;51.908;10.418;2023-12-28T11:31:04;5.82;;;2.05;;
39994;SDS011;25686;51.908;10.418;2023-12-28T11:33:05;4.22;;;1.85;;
39994;SDS011;25686;51.908;10.418;2023-12-28T11:35:06;5.53;;;1.90;;
39994;SDS011;25686;51.908;10.418;2023-12-28T11:37:14;4.13;;;1.90;;
39994;SDS011;25686;51.908;10.418;2023-12-28T11:39:20;4.50;;;2.15;;
39994;SDS011;25686;51.908;10.418;2023-12-28T11:41:27;4.57;;;2.20;;
39994;SDS011;25686;51.908;10.418;2023-12-28T11:43:28;5.70;;;2.08;;
39994;SDS011;25686;51.908;10.418;2023-12-28T11:45:33;8.13;;;2.50;;
39994;SDS011;25686;51.908;10.418;2023-12-28T11:47:34;5.00;;;2.17;;
39994;SDS011;25686;51.908;10.418;2023-12-28T11:49:35;6.90;;;2.03;;
39994;SDS011;25686;51.908;10.418;2023-12-28T11:51:37;4.65;;;2.15;;
39994;SDS011;25686;51.908;10.418;2023-12-28T11:53:38;7.13;;;1.85;;
39994;SDS011;25686;51.908;10.418;2023-12-28T11:55:40;6.47;;;2.00;;
39994;SDS011;25686;51.908;10.418;2023-12-28T11:57:41;5.80;;;2.00;;
39994;SDS011;25686;51.908;10.418;2023-12-28T11:59:52;4.38;;;1.90;;
39994;SDS011;25686;51.908;10.418;2023-12-28T12:01:54;6.85;;;2.03;;
39994;SDS011;25686;51.908;10.418;2023-12-28T12:03:55;7.20;;;2.30;;
39994;SDS011;25686;51.908;10.418;2023-12-28T12:05:56;6.88;;;1.90;;
39994;SDS011;25686;51.908;10.418;2023-12-28T12:07:57;5.22;;;1.92;;
39994;SDS011;25686;51.908;10.418;2023-12-28T12:09:58;4.97;;;2.25;;
39994;SDS011;25686;51.908;10.418;2023-12-28T12:12:02;7.43;;;2.22;;